Time;durP1;ratioP1;P1;durP2;ratioP2;P2;SDS_P1;SDS_P2;PMS_P1;PMS_P2;Temp;Humidity;BMP_temperature;BMP_pressure;BME280_temperature;BME280_humidity;BME280_pressure;Samples;Min_cycle;Max_cycle;Signal;HPM_P1;HPM_P2
2021/03/28 00:00:23;;;;;;;1.45;1.10;;;12.90;99.90;;;;;;5136318;27;20634;-68
2021/03/28 00:02:54;;;;;;;2.85;1.55;;;12.80;99.90;;;;;;5136501;27;20289;-69
2021/03/28 00:05:22;;;;;;;1.13;1.03;;;12.90;99.90;;;;;;5136804;27;20642;-68
2021/03/28 00:07:57;;;;;;;20.77;1.63;;;12.80;99.90;;;;;;5136296;27;20506;-66
2021/03/28 00:10:34;;;;;;;0.88;0.55;;;13.10;99.90;;;;;;5136724;27;20624;-66
2021/03/28 00:13:08;;;;;;;1.38;0.57;;;13.00;99.90;;;;;;5136382;27;20211;-68
2021/03/28 00:15:59;;;;;;;1.48;0.82;;;12.90;99.90;;;;;;5118033;27;20639;-67
2021/03/28 00:18:29;;;;;;;0.95;0.63;;;12.90;99.90;;;;;;5136229;27;20203;-68
2021/03/28 00:21:18;;;;;;;1.58;0.52;;;12.80;99.90;;;;;;5118089;27;20250;-68
2021/03/28 00:23:53;;;;;;;0.70;0.52;;;12.90;99.90;;;;;;5136206;27;20263;-68
2021/03/28 00:26:36;;;;;;;0.50;0.40;;;12.70;99.90;;;;;;5136654;27;20671;-68
2021/03/28 00:29:05;;;;;;;0.65;0.65;;;12.50;99.90;;;;;;5117609;27;20251;-66
2021/03/28 00:31:34;;;;;;;0.60;0.60;;;12.30;99.90;;;;;;5136340;27;20167;-66
2021/03/28 00:34:04;;;;;;;1.10;0.68;;;12.30;99.90;;;;;;5136001;27;20605;-68
2021/03/28 00:36:36;;;;;;;16.70;4.50;;;12.40;99.90;;;;;;5136171;27;20199;-66
2021/03/28 00:39:07;;;;;;;1.95;1.00;;;12.30;99.90;;;;;;5117462;27;20195;-67
2021/03/28 00:41:39;;;;;;;1.42;0.93;;;12.20;99.90;;;;;;5136407;27;20656;-67
2021/03/28 00:44:16;;;;;;;2.60;1.70;;;12.10;99.90;;;;;;5135664;27;20235;-66
2021/03/28 00:46:50;;;;;;;0.80;0.77;;;12.20;99.90;;;;;;5135492;27;20222;-68
2021/03/28 00:49:31;;;;;;;1.40;1.20;;;12.00;99.90;;;;;;5117253;27;20686;-66
2021/03/28 00:52:01;;;;;;;1.10;1.00;;;12.00;99.90;;;;;;5136171;27;20175;-68
2021/03/28 00:54:49;;;;;;;1.23;1.10;;;12.00;99.90;;;;;;5135828;27;20187;-66
2021/03/28 00:57:27;;;;;;;1.90;1.15;;;12.10;99.90;;;;;;5135744;27;20190;-66
2021/03/28 01:00:00;;;;;;;3.55;1.00;;;12.00;99.90;;;;;;5135429;27;20296;-69
2021/03/28 01:02:32;;;;;;;1.08;0.85;;;11.90;99.90;;;;;;5135540;27;20163;-66
2021/03/28 01:05:07;;;;;;;2.35;1.00;;;11.90;99.90;;;;;;5117409;27;20187;-66
2021/03/28 01:07:32;;;;;;;1.15;1.00;;;11.90;99.90;;;;;;5135299;27;20217;-66
2021/03/28 01:10:35;;;;;;;3.13;0.97;;;11.90;99.90;;;;;;5135321;27;20171;-66
2021/03/28 01:13:32;;;;;;;4.45;0.98;;;11.80;99.90;;;;;;5116323;27;20210;-68
2021/03/28 01:16:51;;;;;;;3.88;1.10;;;11.60;99.90;;;;;;5135705;27;20631;-69
2021/03/28 01:19:32;;;;;;;0.50;0.50;;;11.50;99.90;;;;;;5135068;27;20217;-66
2021/03/28 01:22:09;;;;;;;1.15;0.88;;;11.30;99.90;;;;;;5135787;27;20612;-66
2021/03/28 01:24:52;;;;;;;1.02;0.40;;;11.30;99.90;;;;;;5135256;27;20563;-66
2021/03/28 01:27:45;;;;;;;1.23;0.70;;;11.20;99.90;;;;;;5135099;27;20210;-67
2021/03/28 01:30:15;;;;;;;0.50;0.30;;;11.10;99.90;;;;;;5116604;27;20733;-66
2021/03/28 01:32:46;;;;;;;0.40;0.32;;;11.00;99.90;;;;;;5116504;27;20212;-66
2021/03/28 01:35:15;;;;;;;0.40;0.30;;;11.00;99.90;;;;;;5135132;27;20227;-68
2021/03/28 01:37:57;;;;;;;0.50;0.50;;;11.00;99.90;;;;;;5134799;27;20628;-68
2021/03/28 01:40:26;;;;;;;0.50;0.45;;;10.90;99.90;;;;;;5134993;27;20514;-68
2021/03/28 01:43:03;;;;;;;0.40;0.30;;;10.80;99.90;;;;;;5134757;27;20191;-67
2021/03/28 01:45:53;;;;;;;0.40;0.40;;;10.70;99.90;;;;;;5116225;27;20230;-66
2021/03/28 01:48:27;;;;;;;0.80;0.65;;;10.60;99.90;;;;;;5116409;28;20214;-69
2021/03/28 01:51:17;;;;;;;0.50;0.40;;;10.60;99.90;;;;;;5134922;27;20566;-66
2021/03/28 01:54:04;;;;;;;0.40;0.40;;;10.50;99.90;;;;;;5134680;28;20194;-68
2021/03/28 01:56:42;;;;;;;0.98;0.50;;;10.40;99.90;;;;;;5135095;28;20636;-69
2021/03/28 01:59:19;;;;;;;0.40;0.40;;;10.40;99.90;;;;;;5134747;28;20222;-66
2021/03/28 02:02:26;;;;;;;0.60;0.60;;;10.40;99.90;;;;;;5116467;28;20182;-66
2021/03/28 02:04:57;;;;;;;0.43;0.30;;;10.40;99.90;;;;;;5102694;28;20197;-66
2021/03/28 02:07:37;;;;;;;0.45;0.30;;;10.30;99.90;;;;;;5134459;28;20211;-66
2021/03/28 02:10:26;;;;;;;0.40;0.40;;;10.30;99.90;;;;;;5134724;28;20162;-66
2021/03/28 02:13:00;;;;;;;0.95;0.70;;;10.30;99.90;;;;;;5134517;28;20191;-68
2021/03/28 02:15:40;;;;;;;1.52;0.47;;;10.20;99.90;;;;;;5116167;28;20547;-69
2021/03/28 02:18:44;;;;;;;1.63;0.60;;;10.10;99.90;;;;;;5116132;28;20629;-67
2021/03/28 02:21:30;;;;;;;0.43;0.40;;;10.10;99.90;;;;;;5134717;28;20191;-69
2021/03/28 02:24:33;;;;;;;1.13;0.40;;;10.10;99.90;;;;;;5136515;27;20678;-66
2021/03/28 02:27:21;;;;;;;0.65;0.47;;;10.20;99.90;;;;;;5120242;27;20561;-68
2021/03/28 02:29:50;;;;;;;0.82;0.38;;;10.20;99.90;;;;;;5138284;27;20195;-69
2021/03/28 02:32:21;;;;;;;0.65;0.47;;;10.30;99.90;;;;;;5138554;27;20167;-66
2021/03/28 02:35:10;;;;;;;0.40;0.40;;;10.30;99.90;;;;;;5138193;27;20202;-66
2021/03/28 02:37:55;;;;;;;0.70;0.45;;;10.30;99.90;;;;;;5120128;27;20186;-68
2021/03/28 02:40:42;;;;;;;1.58;0.60;;;10.20;99.90;;;;;;5138446;27;20175;-67
2021/03/28 02:43:32;;;;;;;0.70;0.50;;;10.30;99.90;;;;;;5138117;27;20191;-69
2021/03/28 02:46:19;;;;;;;1.60;0.55;;;10.30;99.90;;;;;;5138028;27;20675;-69
2021/03/28 02:49:12;;;;;;;0.60;0.45;;;10.40;99.90;;;;;;5138071;27;20190;-66
2021/03/28 02:51:40;;;;;;;0.80;0.50;;;10.40;99.90;;;;;;5138410;27;20272;-68
2021/03/28 02:54:45;;;;;;;1.10;0.43;;;10.40;99.90;;;;;;5137976;27;20197;-66
2021/03/28 02:57:36;;;;;;;1.25;1.00;;;10.40;99.90;;;;;;5138010;27;20667;-66
2021/03/28 03:00:31;;;;;;;0.60;0.40;;;10.40;99.90;;;;;;5137870;27;20254;-68
2021/03/28 03:03:15;;;;;;;0.40;0.30;;;10.40;99.90;;;;;;5137977;27;20218;-66
2021/03/28 03:05:57;;;;;;;0.50;0.50;;;10.40;99.90;;;;;;5119540;27;20175;-66
2021/03/28 03:08:58;;;;;;;0.68;0.45;;;10.40;99.90;;;;;;5137822;27;20203;-66
2021/03/28 03:11:48;;;;;;;0.70;0.50;;;10.40;99.90;;;;;;5113727;27;20186;-69
2021/03/28 03:14:23;;;;;;;0.40;0.40;;;10.40;99.90;;;;;;5137602;27;20194;-69
2021/03/28 03:17:26;;;;;;;0.40;0.20;;;10.40;99.90;;;;;;5137938;27;20252;-67
2021/03/28 03:20:19;;;;;;;0.57;0.40;;;10.40;99.90;;;;;;5137471;27;20527;-68
2021/03/28 03:22:57;;;;;;;1.13;0.77;;;10.50;99.90;;;;;;5118978;27;20182;-68
2021/03/28 03:25:53;;;;;;;0.80;0.73;;;10.50;99.90;;;;;;5137484;27;20183;-66
2021/03/28 03:28:48;;;;;;;0.60;0.40;;;10.40;99.90;;;;;;5137235;27;20231;-66
2021/03/28 03:31:21;;;;;;;0.50;0.30;;;10.40;99.90;;;;;;5131657;27;20239;-69
2021/03/28 03:34:14;;;;;;;0.40;0.30;;;10.50;99.90;;;;;;5118679;27;20202;-67
2021/03/28 03:37:09;;;;;;;0.73;0.40;;;10.50;99.90;;;;;;5118484;27;20171;-66
2021/03/28 03:39:58;;;;;;;0.60;0.43;;;10.60;99.90;;;;;;5137141;27;20198;-66
2021/03/28 03:42:52;;;;;;;1.20;0.50;;;10.60;99.90;;;;;;5137180;27;20503;-70
2021/03/28 03:45:50;;;;;;;0.40;0.40;;;10.60;99.90;;;;;;5136932;27;20732;-69
2021/03/28 03:48:33;;;;;;;0.60;0.50;;;10.60;99.90;;;;;;5123049;27;20231;-66
2021/03/28 03:51:25;;;;;;;0.40;0.40;;;10.60;99.90;;;;;;5137322;27;20224;-66
2021/03/28 03:54:03;;;;;;;0.60;0.40;;;10.60;99.90;;;;;;5118318;27;20195;-69
2021/03/28 03:57:03;;;;;;;0.75;0.47;;;10.60;99.90;;;;;;5118326;27;20542;-69
2021/03/28 03:59:37;;;;;;;0.60;0.40;;;10.50;99.90;;;;;;5116165;27;20599;-67
2021/03/28 04:02:20;;;;;;;0.50;0.30;;;10.50;99.90;;;;;;5137345;27;20175;-67
2021/03/28 04:05:08;;;;;;;0.75;0.63;;;10.50;99.90;;;;;;5136460;27;20285;-67
2021/03/28 04:07:54;;;;;;;0.60;0.55;;;10.40;99.90;;;;;;5136444;27;20249;-68
2021/03/28 04:10:30;;;;;;;1.77;0.45;;;10.40;99.90;;;;;;5136677;27;20616;-67
2021/03/28 04:13:21;;;;;;;0.75;0.52;;;10.30;99.90;;;;;;5118033;27;20194;-66
2021/03/28 04:16:04;;;;;;;0.50;0.30;;;10.40;99.90;;;;;;5136518;27;20671;-69
2021/03/28 04:18:40;;;;;;;0.80;0.50;;;10.20;99.90;;;;;;5136286;27;20375;-69
2021/03/28 04:21:40;;;;;;;0.40;0.40;;;10.20;99.90;;;;;;5136657;27;20190;-66
2021/03/28 04:24:29;;;;;;;0.63;0.63;;;10.20;99.90;;;;;;5136289;27;20213;-68
2021/03/28 04:27:31;;;;;;;0.70;0.50;;;10.20;99.90;;;;;;5136728;27;20234;-68
2021/03/28 04:29:57;;;;;;;0.40;0.30;;;10.20;99.90;;;;;;5136275;27;20539;-69
2021/03/28 04:32:56;;;;;;;0.60;0.60;;;10.20;99.90;;;;;;5136183;27;20182;-68
2021/03/28 04:35:41;;;;;;;0.73;0.57;;;10.20;99.90;;;;;;5117660;27;20213;-68
2021/03/28 04:38:34;;;;;;;0.40;0.32;;;10.30;99.90;;;;;;5135964;27;20648;-67
2021/03/28 04:41:29;;;;;;;0.40;0.40;;;10.20;99.90;;;;;;5117692;27;20191;-69
2021/03/28 04:44:30;;;;;;;0.40;0.30;;;10.20;99.90;;;;;;5135976;27;20195;-69
2021/03/28 04:47:14;;;;;;;1.52;0.50;;;10.30;99.90;;;;;;5116318;27;20230;-66
2021/03/28 04:50:16;;;;;;;2.75;0.52;;;10.30;99.90;;;;;;5135708;27;20205;-66
2021/03/28 04:53:09;;;;;;;0.40;0.35;;;10.30;99.90;;;;;;5117184;27;20179;-69
2021/03/28 04:56:00;;;;;;;2.70;0.50;;;10.30;99.90;;;;;;5135840;27;20624;-66
2021/03/28 04:58:34;;;;;;;1.05;0.57;;;10.40;99.90;;;;;;5135596;27;20203;-68
2021/03/28 05:01:10;;;;;;;0.60;0.52;;;10.40;99.90;;;;;;5117233;27;20635;-66
2021/03/28 05:04:04;;;;;;;3.47;0.60;;;10.40;99.90;;;;;;5135405;27;20202;-68
2021/03/28 05:06:48;;;;;;;0.40;0.30;;;10.40;99.90;;;;;;5135700;27;20215;-67
2021/03/28 05:09:20;;;;;;;0.60;0.52;;;10.40;99.90;;;;;;5116949;27;20190;-66
2021/03/28 05:12:04;;;;;;;0.40;0.30;;;10.40;99.90;;;;;;5135748;27;20171;-68
2021/03/28 05:14:49;;;;;;;1.58;0.63;;;10.40;99.90;;;;;;5135226;27;20194;-66
2021/03/28 05:17:23;;;;;;;0.63;0.60;;;10.50;99.90;;;;;;5135290;27;20216;-69
2021/03/28 05:20:20;;;;;;;0.73;0.50;;;10.40;99.90;;;;;;5116632;27;20198;-69
2021/03/28 05:23:23;;;;;;;1.45;0.65;;;10.50;99.90;;;;;;5126688;27;20226;-66
2021/03/28 05:26:26;;;;;;;0.60;0.40;;;10.40;99.90;;;;;;5116738;27;20512;-68
2021/03/28 05:29:13;;;;;;;1.45;0.65;;;10.40;99.90;;;;;;5116498;27;20305;-68
2021/03/28 05:31:59;;;;;;;0.75;0.70;;;10.50;99.90;;;;;;5135497;27;20257;-67
2021/03/28 05:34:46;;;;;;;0.70;0.60;;;10.50;99.90;;;;;;5135011;27;20195;-66
2021/03/28 05:37:49;;;;;;;0.90;0.50;;;10.60;99.90;;;;;;5135090;27;20636;-68
2021/03/28 05:40:15;;;;;;;0.50;0.50;;;10.60;99.90;;;;;;5134719;27;20539;-66
2021/03/28 05:42:55;;;;;;;0.60;0.60;;;10.60;99.90;;;;;;5134841;27;20174;-66
2021/03/28 05:45:46;;;;;;;0.40;0.30;;;10.70;99.90;;;;;;5133523;27;20234;-66
2021/03/28 05:48:30;;;;;;;0.65;0.50;;;10.80;99.90;;;;;;5133896;27;20222;-67
2021/03/28 05:51:26;;;;;;;0.93;0.50;;;10.80;99.90;;;;;;5134401;27;20678;-66
2021/03/28 05:54:13;;;;;;;1.45;0.85;;;10.90;99.90;;;;;;5133742;27;20199;-68
2021/03/28 05:57:16;;;;;;;0.85;0.85;;;11.00;99.90;;;;;;5132970;28;20174;-66
2021/03/28 06:00:00;;;;;;;0.93;0.47;;;11.20;99.90;;;;;;5132189;27;20727;-67
2021/03/28 06:02:55;;;;;;;0.90;0.63;;;11.20;99.90;;;;;;5132789;28;20172;-69
2021/03/28 06:05:51;;;;;;;0.60;0.50;;;11.40;99.90;;;;;;5132548;28;20179;-67
2021/03/28 06:08:17;;;;;;;0.73;0.38;;;11.40;99.90;;;;;;5113901;28;20712;-67
2021/03/28 06:10:54;;;;;;;0.70;0.50;;;11.50;99.90;;;;;;5133422;28;20179;-67
2021/03/28 06:13:45;;;;;;;0.70;0.45;;;11.60;99.90;;;;;;5134625;28;20205;-66
2021/03/28 06:16:42;;;;;;;0.50;0.40;;;11.50;99.90;;;;;;5134864;28;20194;-68
2021/03/28 06:19:27;;;;;;;0.40;0.40;;;11.60;99.90;;;;;;5134461;28;20240;-66
2021/03/28 06:22:19;;;;;;;1.25;0.60;;;11.60;99.90;;;;;;5134896;28;20224;-68
2021/03/28 06:25:13;;;;;;;0.50;0.50;;;11.70;99.90;;;;;;5115996;28;20286;-67
2021/03/28 06:27:41;;;;;;;1.05;0.77;;;11.70;99.90;;;;;;5134245;28;20301;-66
2021/03/28 06:30:35;;;;;;;1.48;0.80;;;11.70;99.90;;;;;;5134271;28;20181;-70
2021/03/28 06:33:22;;;;;;;0.60;0.50;;;11.70;99.90;;;;;;5114759;28;20288;-66
2021/03/28 06:35:58;;;;;;;0.70;0.63;;;11.70;99.90;;;;;;5112061;28;20672;-67
2021/03/28 06:39:00;;;;;;;0.80;0.80;;;11.60;99.90;;;;;;5111627;28;20191;-70
2021/03/28 06:42:10;;;;;;;0.50;0.50;;;11.70;99.90;;;;;;5111884;28;20175;-67
2021/03/28 06:44:54;;;;;;;0.63;0.63;;;11.60;99.90;;;;;;5111762;28;20184;-68
2021/03/28 06:47:23;;;;;;;1.00;0.75;;;11.70;99.90;;;;;;5112766;28;20223;-67
2021/03/28 06:50:10;;;;;;;0.73;0.40;;;11.70;99.90;;;;;;5093015;28;20195;-68
2021/03/28 06:52:54;;;;;;;0.60;0.50;;;11.60;99.90;;;;;;5111445;28;20221;-66
2021/03/28 06:55:26;;;;;;;0.82;0.73;;;11.60;99.90;;;;;;5093026;28;20179;-67
2021/03/28 06:58:10;;;;;;;0.70;0.60;;;11.60;99.90;;;;;;5093473;28;20208;-67
2021/03/28 07:01:13;;;;;;;0.80;0.40;;;11.50;99.90;;;;;;5111539;28;20550;-68
2021/03/28 07:04:20;;;;;;;3.53;1.40;;;11.50;99.90;;;;;;5094193;28;20652;-67
2021/03/28 07:07:14;;;;;;;1.27;1.17;;;11.50;99.90;;;;;;5111431;28;20207;-69
2021/03/28 07:10:03;;;;;;;1.60;0.93;;;11.60;99.90;;;;;;5094990;28;20271;-69
2021/03/28 07:12:47;;;;;;;0.50;0.40;;;11.60;99.90;;;;;;5117128;28;20259;-69
2021/03/28 07:15:40;;;;;;;0.98;0.50;;;11.50;99.90;;;;;;5117214;28;20551;-68
2021/03/28 07:18:32;;;;;;;0.90;0.60;;;11.60;99.90;;;;;;5117006;28;20204;-66
2021/03/28 07:21:29;;;;;;;1.63;0.60;;;11.70;99.20;;;;;;5117361;28;20176;-68
2021/03/28 07:24:03;;;;;;;1.08;1.05;;;11.80;98.90;;;;;;5116922;28;20203;-66
2021/03/28 07:26:51;;;;;;;1.25;0.50;;;11.90;97.30;;;;;;5116654;28;20293;-66
2021/03/28 07:29:42;;;;;;;1.30;0.80;;;11.90;97.20;;;;;;5116839;28;20223;-68
2021/03/28 07:32:34;;;;;;;0.70;0.70;;;11.80;97.40;;;;;;5098668;28;20629;-69
2021/03/28 07:35:29;;;;;;;0.60;0.40;;;12.00;96.80;;;;;;5116784;28;20164;-68
2021/03/28 07:37:57;;;;;;;1.83;1.30;;;11.90;96.60;;;;;;5116598;28;20337;-69
2021/03/28 07:40:56;;;;;;;2.08;0.90;;;12.10;96.20;;;;;;5116681;28;20549;-69
2021/03/28 07:44:07;;;;;;;4.43;0.90;;;12.10;95.50;;;;;;5116520;28;20792;-68
2021/03/28 07:46:59;;;;;;;0.93;0.70;;;11.90;95.00;;;;;;5116313;28;20219;-68
2021/03/28 07:49:54;;;;;;;1.95;0.75;;;11.80;93.90;;;;;;5116461;28;20680;-67
2021/03/28 07:52:34;;;;;;;0.88;0.60;;;12.00;93.10;;;;;;5116436;28;20672;-68
2021/03/28 07:55:27;;;;;;;0.52;0.40;;;11.80;92.20;;;;;;5116242;28;20171;-70
2021/03/28 07:58:43;;;;;;;0.40;0.30;;;11.90;91.80;;;;;;5116117;28;20283;-66
2021/03/28 08:01:18;;;;;;;1.35;0.57;;;11.90;91.40;;;;;;5053408;28;20186;-66
2021/03/28 08:04:06;;;;;;;1.27;0.63;;;12.00;91.70;;;;;;5053423;28;20614;-68
2021/03/28 08:06:46;;;;;;;0.60;0.40;;;12.20;90.90;;;;;;5095739;28;20272;-66
2021/03/28 08:09:40;;;;;;;2.47;0.57;;;12.00;90.80;;;;;;5116052;28;20256;-66
2021/03/28 08:12:27;;;;;;;0.47;0.45;;;11.90;91.00;;;;;;5116753;28;20561;-69
2021/03/28 08:15:09;;;;;;;0.30;0.20;;;12.00;90.70;;;;;;5115793;28;20180;-66
2021/03/28 08:17:42;;;;;;;3.53;0.50;;;12.00;90.80;;;;;;5115802;28;20164;-68
2021/03/28 08:20:44;;;;;;;0.82;0.50;;;12.00;90.30;;;;;;5115879;28;20179;-68
2021/03/28 08:23:31;;;;;;;1.10;0.60;;;11.90;90.10;;;;;;5115657;28;20580;-66
2021/03/28 08:26:41;;;;;;;0.40;0.35;;;11.80;89.70;;;;;;5115891;28;20258;-67
2021/03/28 08:29:42;;;;;;;0.43;0.40;;;11.70;88.50;;;;;;5084213;28;20768;-67
2021/03/28 08:32:54;;;;;;;0.88;0.88;;;11.80;87.90;;;;;;5116127;28;20175;-69
2021/03/28 08:35:22;;;;;;;0.50;0.50;;;11.70;88.50;;;;;;5115612;28;20220;-66
2021/03/28 08:38:08;;;;;;;0.60;0.60;;;11.70;88.50;;;;;;5115353;28;20210;-66
2021/03/28 08:41:11;;;;;;;0.52;0.50;;;11.70;87.70;;;;;;5115545;28;20171;-68
2021/03/28 08:44:11;;;;;;;2.75;1.55;;;11.80;87.20;;;;;;5115192;28;20608;-68
2021/03/28 08:47:00;;;;;;;0.75;0.68;;;11.70;87.20;;;;;;5115120;28;20229;-66
2021/03/28 08:50:06;;;;;;;0.80;0.65;;;11.80;85.90;;;;;;5115003;28;20227;-66
2021/03/28 08:52:57;;;;;;;0.40;0.40;;;11.80;85.30;;;;;;5111756;28;20205;-68
2021/03/28 08:56:07;;;;;;;0.43;0.43;;;12.00;85.20;;;;;;5115196;28;20168;-68
2021/03/28 08:58:42;;;;;;;0.90;0.40;;;12.00;85.70;;;;;;5096730;28;20200;-66
2021/03/28 09:01:39;;;;;;;0.40;0.40;;;12.00;85.50;;;;;;5115339;28;20218;-69
2021/03/28 09:04:23;;;;;;;1.02;0.70;;;12.20;84.10;;;;;;5060815;28;20567;-66
2021/03/28 09:07:07;;;;;;;0.60;0.50;;;12.20;85.70;;;;;;5115278;28;20605;-67
2021/03/28 09:09:53;;;;;;;0.98;0.77;;;12.30;84.30;;;;;;5116085;27;20611;-66
2021/03/28 09:12:57;;;;;;;0.70;0.70;;;12.60;83.50;;;;;;5114370;28;20594;-69
2021/03/28 09:15:37;;;;;;;1.33;0.77;;;13.00;81.40;;;;;;5115024;28;20820;-66
2021/03/28 09:18:29;;;;;;;0.70;0.47;;;13.40;78.50;;;;;;5112825;28;20522;-67
2021/03/28 09:21:14;;;;;;;0.50;0.30;;;13.30;76.70;;;;;;5112727;28;20424;-68
2021/03/28 09:23:49;;;;;;;3.60;2.53;;;13.40;79.00;;;;;;5112490;28;20925;-69
2021/03/28 09:26:39;;;;;;;1.23;1.13;;;13.90;77.00;;;;;;5112687;28;20755;-70
2021/03/28 09:29:36;;;;;;;1.33;0.80;;;14.20;76.50;;;;;;5112336;28;20432;-67
2021/03/28 09:32:31;;;;;;;0.87;0.50;;;14.40;74.60;;;;;;5094312;28;20442;-68
2021/03/28 09:35:23;;;;;;;1.53;0.70;;;14.70;74.10;;;;;;5114385;28;20766;-67
2021/03/28 09:37:57;;;;;;;0.50;0.47;;;15.10;74.00;;;;;;5114261;28;20428;-67
2021/03/28 09:40:48;;;;;;;1.93;0.60;;;15.10;72.30;;;;;;5114593;28;20399;-67
2021/03/28 09:43:26;;;;;;;1.00;0.60;;;15.50;72.10;;;;;;5114343;28;20436;-67
2021/03/28 09:46:00;;;;;;;1.40;0.93;;;15.70;72.30;;;;;;5092451;28;20523;-69
2021/03/28 09:48:48;;;;;;;0.70;0.40;;;15.90;69.20;;;;;;5093752;28;20472;-70
2021/03/28 09:51:46;;;;;;;0.97;0.40;;;16.00;67.30;;;;;;5094265;28;20459;-66
2021/03/28 09:54:36;;;;;;;0.70;0.50;;;16.20;67.50;;;;;;5093858;28;20968;-69
2021/03/28 09:57:07;;;;;;;0.60;0.40;;;15.90;66.30;;;;;;5094473;28;20413;-67
2021/03/28 09:59:54;;;;;;;0.80;0.70;;;15.90;65.90;;;;;;5093707;28;20432;-67
2021/03/28 10:02:39;;;;;;;0.93;0.80;;;15.70;65.40;;;;;;5093853;28;20401;-69
2021/03/28 10:05:19;;;;;;;0.87;0.67;;;15.20;66.00;;;;;;5093899;28;20389;-67
2021/03/28 10:07:51;;;;;;;2.00;0.60;;;15.20;67.20;;;;;;5093647;28;20449;-69
2021/03/28 10:10:32;;;;;;;0.70;0.53;;;15.00;66.70;;;;;;5092437;28;20424;-69
2021/03/28 10:13:10;;;;;;;0.70;0.70;;;14.60;66.10;;;;;;5092393;28;21060;-69
2021/03/28 10:16:06;;;;;;;1.23;1.13;;;14.60;67.10;;;;;;5093908;28;20470;-69
2021/03/28 10:19:08;;;;;;;1.10;0.70;;;14.20;67.40;;;;;;5092226;28;20479;-67
2021/03/28 10:21:53;;;;;;;0.67;0.40;;;14.00;68.10;;;;;;5094020;28;20452;-69
2021/03/28 10:24:24;;;;;;;0.50;0.47;;;14.00;69.10;;;;;;5092232;28;20503;-70
2021/03/28 10:27:03;;;;;;;0.77;0.50;;;14.10;64.90;;;;;;5092362;28;20891;-69
2021/03/28 10:29:53;;;;;;;0.70;0.63;;;14.10;65.50;;;;;;5093509;28;20432;-67
2021/03/28 10:32:25;;;;;;;2.07;0.90;;;14.50;64.90;;;;;;5093460;28;20414;-67
2021/03/28 10:35:01;;;;;;;2.20;1.67;;;14.70;64.60;;;;;;5093324;28;20481;-67
2021/03/28 10:37:26;;;;;;;0.50;0.50;;;14.70;64.20;;;;;;5092077;28;20442;-67
2021/03/28 10:40:13;;;;;;;0.57;0.40;;;14.80;64.50;;;;;;5093307;28;20408;-67
2021/03/28 10:42:44;;;;;;;0.50;0.47;;;15.10;64.40;;;;;;5093358;28;20180;-69
2021/03/28 10:45:27;;;;;;;1.53;0.63;;;15.30;66.80;;;;;;5096364;28;20413;-69
2021/03/28 10:48:04;;;;;;;0.60;0.53;;;15.40;67.00;;;;;;5099153;28;20532;-68
2021/03/28 10:50:54;;;;;;;0.77;0.57;;;15.40;65.10;;;;;;5117641;28;20414;-67
2021/03/28 10:53:38;;;;;;;0.40;0.30;;;15.40;61.70;;;;;;5117715;28;20489;-67
2021/03/28 10:56:13;;;;;;;0.40;0.40;;;15.50;64.00;;;;;;5099165;28;20481;-69
2021/03/28 10:59:06;;;;;;;3.07;1.03;;;15.80;60.70;;;;;;5117419;28;20443;-67
2021/03/28 11:02:05;;;;;;;0.50;0.50;;;16.10;62.10;;;;;;5117789;28;20766;-67
2021/03/28 11:05:02;;;;;;;0.50;0.40;;;15.60;62.60;;;;;;5117223;28;20518;-69
2021/03/28 11:07:57;;;;;;;1.70;0.80;;;15.20;64.20;;;;;;5117108;28;21032;-67
2021/03/28 11:10:41;;;;;;;1.63;1.03;;;15.20;64.80;;;;;;5099078;28;20984;-70
2021/03/28 11:13:15;;;;;;;1.13;0.77;;;15.90;67.30;;;;;;5098843;28;20804;-69
2021/03/28 11:16:05;;;;;;;0.63;0.63;;;16.20;64.80;;;;;;5098816;28;20427;-69
2021/03/28 11:19:01;;;;;;;1.77;0.80;;;16.60;62.60;;;;;;5117012;28;20431;-67
2021/03/28 11:21:32;;;;;;;1.07;0.50;;;16.70;62.80;;;;;;5117307;28;20411;-69
2021/03/28 11:24:22;;;;;;;0.80;0.50;;;16.50;62.10;;;;;;5098562;28;20462;-67
2021/03/28 11:27:02;;;;;;;0.50;0.47;;;16.50;62.60;;;;;;5098607;28;20470;-70
2021/03/28 11:29:47;;;;;;;0.60;0.40;;;16.20;61.00;;;;;;5116824;28;20431;-70
2021/03/28 11:32:37;;;;;;;0.50;0.50;;;15.90;61.10;;;;;;5116830;28;20428;-67
2021/03/28 11:35:21;;;;;;;0.93;0.70;;;15.90;59.80;;;;;;5116694;28;20457;-67
2021/03/28 11:38:18;;;;;;;0.70;0.50;;;15.90;59.40;;;;;;5116620;28;20428;-68
2021/03/28 11:41:06;;;;;;;1.43;0.90;;;15.40;63.00;;;;;;5098281;28;20467;-69
2021/03/28 11:43:53;;;;;;;1.20;0.70;;;15.00;62.90;;;;;;5116394;28;20435;-68
2021/03/28 11:46:56;;;;;;;0.60;0.60;;;15.00;63.20;;;;;;5116260;28;20459;-67
2021/03/28 11:49:28;;;;;;;0.67;0.60;;;14.70;64.30;;;;;;5116380;28;20435;-70
2021/03/28 11:51:54;;;;;;;0.60;0.50;;;14.60;64.40;;;;;;5116927;28;20446;-67
2021/03/28 11:54:27;;;;;;;0.73;0.73;;;14.50;64.80;;;;;;5098042;28;20972;-67
2021/03/28 11:57:05;;;;;;;1.03;0.60;;;14.60;64.20;;;;;;5116279;28;20212;-70
2021/03/28 11:59:53;;;;;;;0.80;0.77;;;15.10;63.40;;;;;;5097894;28;20964;-67
2021/03/28 12:02:23;;;;;;;1.70;0.73;;;15.30;62.80;;;;;;5116190;28;20552;-69
2021/03/28 12:05:10;;;;;;;2.23;0.57;;;15.60;62.70;;;;;;5097656;28;20467;-67
2021/03/28 12:07:44;;;;;;;0.63;0.50;;;16.00;62.50;;;;;;5115825;28;20464;-69
2021/03/28 12:10:10;;;;;;;0.50;0.40;;;16.40;61.20;;;;;;5097806;28;20416;-66
2021/03/28 12:12:51;;;;;;;0.73;0.60;;;16.30;60.70;;;;;;5115846;28;20412;-68
2021/03/28 12:15:42;;;;;;;0.70;0.50;;;16.30;59.60;;;;;;5115981;28;20252;-69
2021/03/28 12:18:20;;;;;;;4.40;1.90;;;16.50;59.00;;;;;;5097408;28;20440;-67
2021/03/28 12:21:07;;;;;;;0.70;0.63;;;16.00;58.90;;;;;;5097568;28;20789;-68
2021/03/28 12:23:48;;;;;;;0.67;0.50;;;16.30;58.90;;;;;;5115541;28;20439;-70
2021/03/28 12:26:28;;;;;;;0.90;0.90;;;16.30;57.80;;;;;;5097626;28;20786;-67
2021/03/28 12:29:32;;;;;;;0.50;0.43;;;16.80;59.80;;;;;;5096271;28;20500;-67
2021/03/28 12:31:57;;;;;;;1.10;0.90;;;17.10;58.00;;;;;;5114702;28;20560;-69
2021/03/28 12:34:26;;;;;;;1.23;0.70;;;16.60;57.40;;;;;;5114104;28;20972;-68
2021/03/28 12:37:00;;;;;;;0.73;0.73;;;16.90;57.30;;;;;;5114496;28;20313;-70
2021/03/28 12:39:33;;;;;;;0.70;0.40;;;16.80;57.40;;;;;;5114668;28;20467;-69
2021/03/28 12:42:01;;;;;;;1.77;0.57;;;16.90;58.00;;;;;;5096652;28;20424;-67
2021/03/28 12:44:47;;;;;;;0.50;0.43;;;16.80;57.80;;;;;;5114978;28;20428;-68
2021/03/28 12:47:18;;;;;;;1.27;0.97;;;16.80;57.80;;;;;;5115100;28;20524;-70
2021/03/28 12:49:56;;;;;;;0.70;0.60;;;16.90;58.20;;;;;;5115231;28;20425;-69
2021/03/28 12:52:46;;;;;;;1.77;0.80;;;17.00;59.30;;;;;;5115256;28;20408;-67
2021/03/28 12:55:12;;;;;;;1.63;1.43;;;16.80;58.10;;;;;;5115321;28;20915;-67
2021/03/28 12:57:37;;;;;;;2.03;0.73;;;16.60;57.80;;;;;;5096673;28;20400;-69
2021/03/28 13:00:26;;;;;;;0.60;0.40;;;16.60;58.10;;;;;;5115166;28;20247;-69
2021/03/28 13:02:54;;;;;;;0.47;0.37;;;17.00;58.40;;;;;;5115014;28;20229;-69
2021/03/28 13:05:30;;;;;;;0.70;0.40;;;17.10;58.40;;;;;;5115102;28;20400;-70
2021/03/28 13:08:18;;;;;;;1.53;0.77;;;17.10;56.80;;;;;;5114052;28;20461;-70
2021/03/28 13:10:45;;;;;;;0.63;0.43;;;17.30;57.60;;;;;;5115019;28;20404;-67
2021/03/28 13:13:13;;;;;;;0.60;0.33;;;16.90;57.10;;;;;;5114737;28;20508;-69
2021/03/28 13:15:54;;;;;;;0.90;0.60;;;17.10;57.40;;;;;;5114937;28;20416;-67
2021/03/28 13:18:22;;;;;;;1.17;0.60;;;17.50;57.30;;;;;;5100322;28;20530;-68
2021/03/28 13:20:55;;;;;;;3.23;2.00;;;17.40;56.90;;;;;;5114246;28;20416;-71
2021/03/28 13:23:35;;;;;;;2.93;1.83;;;17.40;56.90;;;;;;5114600;28;20481;-67
2021/03/28 13:26:12;;;;;;;2.40;1.50;;;17.30;56.80;;;;;;5114933;28;20464;-67
2021/03/28 13:28:39;;;;;;;2.80;2.20;;;17.20;57.40;;;;;;5114447;28;21098;-69
2021/03/28 13:31:13;;;;;;;1.90;0.97;;;17.10;57.10;;;;;;5114788;28;20423;-69
2021/03/28 13:33:46;;;;;;;1.10;1.00;;;17.20;57.70;;;;;;5114419;28;20432;-67
2021/03/28 13:36:21;;;;;;;0.70;0.70;;;17.00;58.10;;;;;;5114770;28;20411;-68
2021/03/28 13:39:09;;;;;;;0.90;0.53;;;17.20;56.80;;;;;;5114511;28;20782;-70
2021/03/28 13:41:41;;;;;;;2.30;0.97;;;17.30;56.60;;;;;;5096234;28;20431;-67
2021/03/28 13:44:15;;;;;;;1.03;0.93;;;17.50;57.40;;;;;;5114247;28;20424;-69
2021/03/28 13:46:57;;;;;;;1.30;1.07;;;17.30;56.90;;;;;;5095580;28;20819;-67
2021/03/28 13:49:28;;;;;;;2.40;1.60;;;17.30;56.80;;;;;;5094996;28;20464;-69
2021/03/28 13:52:10;;;;;;;0.70;0.50;;;17.40;57.70;;;;;;5114716;28;20423;-67
2021/03/28 13:54:36;;;;;;;1.10;0.60;;;17.70;57.20;;;;;;5114102;28;20458;-69
2021/03/28 13:57:03;;;;;;;1.00;0.83;;;17.70;56.10;;;;;;5096116;28;20421;-68
2021/03/28 13:59:31;;;;;;;0.70;0.60;;;17.80;55.80;;;;;;5114008;28;20275;-67
2021/03/28 14:02:18;;;;;;;0.70;0.70;;;17.50;56.20;;;;;;5114498;28;20420;-67
2021/03/28 14:05:08;;;;;;;1.10;0.70;;;17.40;56.60;;;;;;5114065;28;20431;-67
2021/03/28 14:07:42;;;;;;;0.70;0.70;;;17.50;55.80;;;;;;5113799;28;20463;-67
2021/03/28 14:10:12;;;;;;;0.80;0.80;;;17.60;56.80;;;;;;5095613;28;20423;-67
2021/03/28 14:12:54;;;;;;;0.70;0.60;;;17.70;57.20;;;;;;5114040;28;20773;-67
2021/03/28 14:15:45;;;;;;;0.80;0.60;;;17.50;56.60;;;;;;5095700;28;20437;-69